Time;durP1;ratioP1;P1;durP2;ratioP2;P2;SDS_P1;SDS_P2;PMS_P1;PMS_P2;Temp;Humidity;BMP_temperature;BMP_pressure;BME280_temperature;BME280_humidity;BME280_pressure;Samples;Min_cycle;Max_cycle;Signal;HPM_P1;HPM_P2
2022/08/18 00:02:24;;;;;;;0.30;0.30;;;;;;;;;;7386402;19;20149;-72
2022/08/18 00:04:51;;;;;;;0.40;0.40;;;;;;;;;;7377403;19;20152;-72
2022/08/18 00:07:19;;;;;;;0.30;0.30;;;;;;;;;;7390999;19;20595;-72
2022/08/18 00:09:46;;;;;;;0.30;0.30;;;;;;;;;;7391928;19;20154;-72
2022/08/18 00:12:22;;;;;;;0.30;0.30;;;;;;;;;;7389367;19;20159;-72
2022/08/18 00:14:47;;;;;;;0.30;0.30;;;;;;;;;;7386652;19;20144;-72
2022/08/18 00:17:13;;;;;;;0.20;0.20;;;;;;;;;;7383683;19;20170;-71
2022/08/18 00:19:39;;;;;;;0.30;0.30;;;;;;;;;;7387651;19;20125;-72
2022/08/18 00:22:05;;;;;;;0.30;0.30;;;;;;;;;;7388848;19;20208;-72
2022/08/18 00:24:30;;;;;;;0.30;0.30;;;;;;;;;;7383922;19;20117;-72
2022/08/18 00:26:56;;;;;;;0.30;0.30;;;;;;;;;;7384270;19;20127;-72
2022/08/18 00:29:22;;;;;;;0.30;0.30;;;;;;;;;;7386998;19;20125;-72
2022/08/18 00:31:47;;;;;;;0.30;0.30;;;;;;;;;;7388937;19;20180;-72
2022/08/18 00:34:13;;;;;;;0.30;0.30;;;;;;;;;;7385135;19;20156;-72
2022/08/18 00:36:38;;;;;;;0.40;0.40;;;;;;;;;;7381684;19;20166;-72
2022/08/18 00:39:04;;;;;;;0.40;0.40;;;;;;;;;;7386447;19;20738;-72
2022/08/18 00:41:29;;;;;;;0.30;0.30;;;;;;;;;;7385138;19;20514;-72
2022/08/18 00:43:57;;;;;;;0.30;0.30;;;;;;;;;;7386060;19;20172;-72
2022/08/18 00:46:34;;;;;;;0.30;0.30;;;;;;;;;;7383522;19;20140;-72
2022/08/18 00:49:00;;;;;;;0.30;0.30;;;;;;;;;;7386445;19;20724;-72
2022/08/18 00:51:32;;;;;;;0.30;0.30;;;;;;;;;;7383766;19;20124;-72
2022/08/18 00:54:12;;;;;;;0.30;0.30;;;;;;;;;;7384424;19;20504;-72
2022/08/18 00:56:42;;;;;;;0.30;0.30;;;;;;;;;;7385436;19;20517;-72
2022/08/18 00:59:25;;;;;;;0.30;0.30;;;;;;;;;;7385445;19;20121;-72
2022/08/18 01:01:52;;;;;;;0.30;0.30;;;;;;;;;;7386539;19;20634;-72
2022/08/18 01:04:25;;;;;;;0.30;0.30;;;;;;;;;;7381395;19;20632;-72
2022/08/18 01:06:53;;;;;;;0.30;0.30;;;;;;;;;;7387332;19;20623;-72
2022/08/18 01:09:19;;;;;;;0.30;0.30;;;;;;;;;;7386343;19;20151;-72
2022/08/18 01:11:44;;;;;;;0.30;0.30;;;;;;;;;;7383545;19;20129;-72
2022/08/18 01:14:14;;;;;;;0.88;0.88;;;;;;;;;;7384536;19;20144;-72
2022/08/18 01:22:46;;;;;;;0.30;0.30;;;;;;;;;;7385241;19;20162;-71
2022/08/18 01:27:56;;;;;;;0.30;0.30;;;;;;;;;;7381237;19;20137;-71
2022/08/18 01:30:24;;;;;;;0.30;0.30;;;;;;;;;;7382664;19;20506;-71
2022/08/18 01:32:51;;;;;;;0.30;0.30;;;;;;;;;;7386074;19;20224;-72
2022/08/18 01:35:17;;;;;;;0.30;0.30;;;;;;;;;;7376147;19;20508;-72
2022/08/18 01:37:43;;;;;;;0.30;0.30;;;;;;;;;;7374088;19;20132;-72
2022/08/18 01:40:10;;;;;;;0.30;0.30;;;;;;;;;;7377425;19;20507;-72
2022/08/18 01:42:37;;;;;;;0.30;0.30;;;;;;;;;;7377583;19;20503;-72
2022/08/18 01:45:06;;;;;;;0.30;0.30;;;;;;;;;;7375542;19;20129;-72
2022/08/18 01:47:33;;;;;;;0.30;0.30;;;;;;;;;;7378553;19;20130;-72
2022/08/18 01:49:59;;;;;;;0.30;0.30;;;;;;;;;;7384004;19;20124;-72
2022/08/18 01:52:26;;;;;;;0.30;0.30;;;;;;;;;;7381796;19;20153;-72
2022/08/18 01:54:52;;;;;;;0.50;0.50;;;;;;;;;;7384904;19;20157;-72
2022/08/18 01:57:18;;;;;;;0.43;0.43;;;;;;;;;;7386735;19;20148;-72
2022/08/18 01:59:44;;;;;;;0.30;0.30;;;;;;;;;;7383643;19;20125;-72
2022/08/18 02:02:17;;;;;;;0.50;0.50;;;;;;;;;;7384948;19;20156;-72
2022/08/18 02:04:42;;;;;;;0.20;0.20;;;;;;;;;;7382238;19;21034;-72
2022/08/18 02:07:10;;;;;;;0.30;0.30;;;;;;;;;;7383695;19;20121;-72
2022/08/18 02:09:37;;;;;;;0.20;0.20;;;;;;;;;;7384133;19;20269;-72
2022/08/18 02:12:04;;;;;;;0.30;0.30;;;;;;;;;;7385461;19;20148;-72
2022/08/18 02:14:30;;;;;;;0.30;0.30;;;;;;;;;;7379912;19;20130;-72
2022/08/18 02:16:56;;;;;;;0.30;0.30;;;;;;;;;;7381375;19;20726;-72
2022/08/18 02:19:21;;;;;;;0.30;0.30;;;;;;;;;;7382741;19;20860;-72
2022/08/18 02:21:47;;;;;;;0.30;0.30;;;;;;;;;;7385543;19;20500;-72
2022/08/18 02:24:12;;;;;;;0.30;0.30;;;;;;;;;;7383544;19;20140;-72
2022/08/18 02:26:38;;;;;;;0.30;0.30;;;;;;;;;;7382566;19;20125;-72
2022/08/18 02:29:03;;;;;;;0.30;0.30;;;;;;;;;;7385555;19;20122;-71
2022/08/18 02:31:29;;;;;;;0.20;0.20;;;;;;;;;;7384237;19;20125;-72
2022/08/18 02:33:55;;;;;;;0.30;0.30;;;;;;;;;;7383162;19;20144;-72
2022/08/18 02:36:21;;;;;;;0.30;0.30;;;;;;;;;;7385517;19;20168;-72
2022/08/18 02:38:46;;;;;;;0.45;0.45;;;;;;;;;;7381783;19;20587;-72
2022/08/18 02:41:12;;;;;;;0.22;0.22;;;;;;;;;;7384871;19;20204;-72
2022/08/18 02:43:38;;;;;;;0.30;0.30;;;;;;;;;;7380897;19;20145;-72
2022/08/18 02:46:04;;;;;;;0.30;0.30;;;;;;;;;;7381942;19;20594;-72
2022/08/18 02:48:33;;;;;;;0.32;0.32;;;;;;;;;;7388377;19;20120;-72
2022/08/18 02:51:17;;;;;;;0.30;0.30;;;;;;;;;;7378155;19;20141;-72
2022/08/18 02:53:44;;;;;;;0.30;0.30;;;;;;;;;;7383238;19;20518;-72
2022/08/18 02:56:23;;;;;;;0.82;0.82;;;;;;;;;;7383990;19;20192;-72
2022/08/18 02:58:57;;;;;;;0.20;0.20;;;;;;;;;;7382551;19;20622;-72
2022/08/18 03:01:25;;;;;;;0.43;0.43;;;;;;;;;;7384044;19;20492;-72
2022/08/18 03:03:51;;;;;;;0.30;0.30;;;;;;;;;;7382136;19;20162;-72
2022/08/18 03:06:17;;;;;;;0.30;0.30;;;;;;;;;;7382529;19;20125;-73
2022/08/18 03:08:47;;;;;;;0.30;0.30;;;;;;;;;;7381064;19;20472;-74
2022/08/18 03:11:13;;;;;;;0.30;0.30;;;;;;;;;;7382735;19;20140;-72
2022/08/18 03:13:38;;;;;;;0.30;0.30;;;;;;;;;;7381435;19;20145;-72
2022/08/18 03:16:04;;;;;;;0.30;0.30;;;;;;;;;;7380631;19;20136;-72
2022/08/18 03:18:29;;;;;;;0.20;0.20;;;;;;;;;;7380653;19;20499;-72
2022/08/18 03:20:57;;;;;;;0.30;0.30;;;;;;;;;;7380258;19;20121;-72
2022/08/18 03:23:22;;;;;;;0.30;0.30;;;;;;;;;;7382183;19;20149;-72
2022/08/18 03:25:48;;;;;;;0.30;0.30;;;;;;;;;;7382755;19;20137;-72
2022/08/18 03:28:15;;;;;;;0.40;0.40;;;;;;;;;;7382340;19;20121;-72
2022/08/18 03:30:42;;;;;;;0.30;0.30;;;;;;;;;;7382030;19;20694;-72
2022/08/18 03:33:07;;;;;;;0.20;0.20;;;;;;;;;;7378826;19;20152;-72
2022/08/18 03:35:35;;;;;;;0.30;0.30;;;;;;;;;;7377674;19;20128;-72
2022/08/18 03:38:00;;;;;;;0.82;0.82;;;;;;;;;;7382341;19;20569;-72
2022/08/18 03:40:25;;;;;;;0.30;0.30;;;;;;;;;;7383136;19;20139;-72
2022/08/18 03:42:51;;;;;;;0.30;0.30;;;;;;;;;;7381404;19;20627;-72
2022/08/18 03:45:16;;;;;;;0.30;0.30;;;;;;;;;;7379934;19;20471;-72
2022/08/18 03:47:44;;;;;;;0.30;0.30;;;;;;;;;;7378346;19;20148;-72
2022/08/18 03:50:10;;;;;;;0.40;0.40;;;;;;;;;;7379805;19;20518;-72
2022/08/18 03:52:37;;;;;;;0.40;0.40;;;;;;;;;;7381505;19;20153;-72
2022/08/18 03:55:03;;;;;;;0.30;0.30;;;;;;;;;;7373260;19;20132;-72
2022/08/18 03:57:30;;;;;;;0.85;0.77;;;;;;;;;;7374790;19;20143;-72
2022/08/18 03:59:55;;;;;;;0.30;0.30;;;;;;;;;;7371403;19;20132;-72
2022/08/18 04:02:20;;;;;;;0.68;0.68;;;;;;;;;;7370247;19;20176;-72
2022/08/18 04:04:47;;;;;;;0.30;0.30;;;;;;;;;;7368067;19;20502;-72
2022/08/18 04:07:16;;;;;;;0.30;0.30;;;;;;;;;;7363632;19;20205;-71
2022/08/18 04:09:41;;;;;;;0.30;0.30;;;;;;;;;;7368281;19;20125;-72
2022/08/18 04:12:14;;;;;;;0.30;0.30;;;;;;;;;;7384066;19;20148;-72
2022/08/18 04:14:40;;;;;;;0.30;0.30;;;;;;;;;;7386009;19;20599;-72
2022/08/18 04:17:06;;;;;;;0.30;0.30;;;;;;;;;;7385675;19;20623;-72
2022/08/18 04:19:33;;;;;;;0.40;0.40;;;;;;;;;;7385068;19;20129;-72
2022/08/18 04:21:59;;;;;;;0.30;0.30;;;;;;;;;;7386717;19;20193;-71
2022/08/18 04:24:27;;;;;;;0.30;0.30;;;;;;;;;;7388484;19;20180;-73
2022/08/18 04:26:54;;;;;;;0.30;0.30;;;;;;;;;;7390031;19;20629;-74
2022/08/18 04:29:20;;;;;;;0.30;0.30;;;;;;;;;;7387526;19;20125;-73
2022/08/18 04:31:45;;;;;;;0.30;0.30;;;;;;;;;;7389291;19;20598;-74
2022/08/18 04:34:11;;;;;;;0.30;0.30;;;;;;;;;;7386091;19;20158;-74
2022/08/18 04:36:37;;;;;;;0.20;0.20;;;;;;;;;;7384692;19;20124;-74
2022/08/18 04:39:05;;;;;;;0.30;0.30;;;;;;;;;;7386973;19;20512;-73
2022/08/18 04:41:31;;;;;;;0.75;0.75;;;;;;;;;;7391019;19;20168;-73
2022/08/18 04:43:58;;;;;;;0.60;0.60;;;;;;;;;;7386148;19;20185;-73
2022/08/18 16:44:57;;;;;;;0.30;0.30;;;;;;;;;;7387390;19;20223;-71
2022/08/18 16:47:23;;;;;;;0.30;0.30;;;;;;;;;;7391579;19;20135;-71
2022/08/18 16:49:49;;;;;;;1.05;1.05;;;;;;;;;;7388717;19;20544;-71
2022/08/18 16:52:16;;;;;;;0.30;0.30;;;;;;;;;;7389261;19;20673;-71
2022/08/18 16:54:42;;;;;;;0.38;0.38;;;;;;;;;;7392562;19;20125;-71
2022/08/18 16:57:07;;;;;;;0.30;0.30;;;;;;;;;;7387496;19;20123;-72
2022/08/18 17:05:01;;;;;;;0.50;0.50;;;;;;;;;;7389594;19;20128;-71
2022/08/18 17:07:32;;;;;;;0.55;0.55;;;;;;;;;;7387438;19;20117;-71
2022/08/18 17:09:57;;;;;;;0.80;0.77;;;;;;;;;;7389998;19;20121;-71
2022/08/18 17:12:23;;;;;;;0.30;0.30;;;;;;;;;;7386174;19;20144;-71
2022/08/18 17:14:49;;;;;;;1.17;1.17;;;;;;;;;;7387389;19;20157;-71
2022/08/18 17:17:16;;;;;;;0.40;0.40;;;;;;;;;;7388469;19;20478;-71
2022/08/18 17:19:42;;;;;;;0.30;0.30;;;;;;;;;;7380695;19;20144;-71
2022/08/18 17:22:07;;;;;;;0.30;0.30;;;;;;;;;;7375470;19;20137;-71
2022/08/18 17:24:32;;;;;;;0.60;0.60;;;;;;;;;;7375276;19;20145;-72
2022/08/18 17:27:08;;;;;;;0.93;0.60;;;;;;;;;;7371266;19;20133;-71
2022/08/18 17:29:36;;;;;;;0.30;0.30;;;;;;;;;;7368712;19;20618;-72
2022/08/18 17:32:05;;;;;;;0.30;0.30;;;;;;;;;;7371364;19;20176;-72
2022/08/18 17:34:34;;;;;;;0.30;0.30;;;;;;;;;;7382866;19;20125;-72
2022/08/18 17:37:00;;;;;;;0.30;0.30;;;;;;;;;;7391822;19;20125;-72
2022/08/18 17:39:36;;;;;;;0.30;0.30;;;;;;;;;;7386541;19;20121;-72
2022/08/18 17:44:45;;;;;;;0.30;0.30;;;;;;;;;;7388039;19;20128;-72
2022/08/18 17:47:17;;;;;;;0.32;0.32;;;;;;;;;;7385771;19;20113;-72
2022/08/18 17:52:31;;;;;;;0.50;0.50;;;;;;;;;;7387325;19;20303;-72
2022/08/18 17:55:07;;;;;;;2.10;0.93;;;;;;;;;;7385896;19;20133;-72
2022/08/18 17:57:40;;;;;;;0.30;0.30;;;;;;;;;;7384646;19;20128;-72
2022/08/18 18:00:15;;;;;;;0.95;0.95;;;;;;;;;;7386038;19;20144;-72
2022/08/18 18:02:43;;;;;;;0.30;0.30;;;;;;;;;;7385215;19;20203;-72
2022/08/18 18:05:13;;;;;;;0.30;0.30;;;;;;;;;;7386801;19;20128;-72
2022/08/18 18:07:50;;;;;;;0.38;0.38;;;;;;;;;;7386520;19;20148;-72
2022/08/18 18:10:47;;;;;;;0.95;0.95;;;;;;;;;;7386831;19;20196;-72
2022/08/18 18:13:22;;;;;;;0.30;0.30;;;;;;;;;;7381974;19;20224;-72
2022/08/18 18:15:54;;;;;;;0.40;0.40;;;;;;;;;;7380036;19;20137;-72
2022/08/18 18:18:35;;;;;;;0.30;0.30;;;;;;;;;;7384928;19;20591;-72
2022/08/18 18:21:04;;;;;;;0.30;0.30;;;;;;;;;;7386299;19;20129;-72
2022/08/18 18:23:35;;;;;;;0.30;0.30;;;;;;;;;;7378591;19;20180;-72
2022/08/18 18:26:25;;;;;;;0.70;0.70;;;;;;;;;;7384318;19;20599;-72
2022/08/18 18:28:52;;;;;;;0.22;0.22;;;;;;;;;;7383034;19;20116;-72
2022/08/18 18:31:26;;;;;;;0.30;0.30;;;;;;;;;;7384861;19;20129;-72
2022/08/18 18:34:05;;;;;;;0.45;0.45;;;;;;;;;;7382291;19;20167;-72
2022/08/18 18:36:36;;;;;;;0.30;0.30;;;;;;;;;;7387208;19;20609;-72
2022/08/18 18:39:18;;;;;;;0.30;0.30;;;;;;;;;;7380681;19;20128;-72
2022/08/18 18:41:44;;;;;;;0.47;0.47;;;;;;;;;;7382934;19;20160;-73
2022/08/18 18:44:11;;;;;;;0.30;0.30;;;;;;;;;;7383809;19;20156;-72
2022/08/18 18:46:49;;;;;;;0.30;0.30;;;;;;;;;;7383517;19;20133;-72
2022/08/18 18:49:21;;;;;;;0.38;0.38;;;;;;;;;;7374323;19;20125;-72
2022/08/18 18:52:06;;;;;;;0.50;0.50;;;;;;;;;;7383666;19;20145;-72
2022/08/18 18:54:58;;;;;;;0.30;0.30;;;;;;;;;;7383168;19;20157;-72
2022/08/18 18:57:37;;;;;;;0.30;0.30;;;;;;;;;;7373244;19;20135;-73
2022/08/18 19:00:15;;;;;;;0.30;0.30;;;;;;;;;;7383329;19;20116;-71
2022/08/18 19:02:46;;;;;;;0.20;0.20;;;;;;;;;;7374850;19;20567;-72
2022/08/18 19:05:28;;;;;;;1.10;0.60;;;;;;;;;;7370678;19;20173;-73
2022/08/18 19:08:03;;;;;;;0.30;0.30;;;;;;;;;;7380482;19;20489;-72
2022/08/18 19:11:13;;;;;;;0.30;0.30;;;;;;;;;;7384166;19;20124;-72
2022/08/18 19:13:41;;;;;;;0.30;0.30;;;;;;;;;;7382559;19;20148;-72
2022/08/18 19:16:15;;;;;;;0.35;0.35;;;;;;;;;;7383672;19;20135;-72
2022/08/18 19:18:47;;;;;;;0.30;0.30;;;;;;;;;;7381656;19;20121;-72
2022/08/18 19:21:17;;;;;;;0.30;0.30;;;;;;;;;;7377935;19;20204;-72
2022/08/18 19:24:12;;;;;;;0.30;0.30;;;;;;;;;;7376728;19;20649;-72
2022/08/18 19:26:50;;;;;;;0.30;0.30;;;;;;;;;;7383230;19;20176;-72
2022/08/18 19:29:21;;;;;;;0.82;0.82;;;;;;;;;;7381617;19;20586;-72
2022/08/18 19:31:49;;;;;;;1.55;0.63;;;;;;;;;;7379610;19;20125;-72
2022/08/18 19:34:22;;;;;;;0.30;0.30;;;;;;;;;;7380067;19;20220;-72
2022/08/18 19:37:04;;;;;;;0.25;0.25;;;;;;;;;;7384579;19;20131;-72
2022/08/18 19:39:41;;;;;;;0.30;0.30;;;;;;;;;;7381830;19;20121;-72
2022/08/18 19:42:25;;;;;;;0.30;0.30;;;;;;;;;;7374177;19;20183;-72
2022/08/18 19:45:04;;;;;;;0.30;0.30;;;;;;;;;;7383008;19;20625;-72
2022/08/18 19:47:38;;;;;;;0.30;0.30;;;;;;;;;;7385518;19;20725;-72
2022/08/18 19:50:25;;;;;;;0.30;0.30;;;;;;;;;;7385779;19;20121;-72
2022/08/18 19:53:03;;;;;;;0.45;0.45;;;;;;;;;;7383269;19;20202;-72
2022/08/18 19:55:53;;;;;;;0.63;0.63;;;;;;;;;;7383050;19;20144;-72
2022/08/18 19:58:55;;;;;;;0.40;0.40;;;;;;;;;;7389457;19;20133;-72
2022/08/18 20:01:55;;;;;;;0.98;0.98;;;;;;;;;;7385044;19;20121;-72
2022/08/18 20:04:23;;;;;;;0.30;0.30;;;;;;;;;;7390684;19;20195;-72
2022/08/18 20:06:57;;;;;;;0.32;0.32;;;;;;;;;;7385677;19;20129;-72
2022/08/18 20:09:36;;;;;;;0.30;0.30;;;;;;;;;;7385608;19;20144;-72
2022/08/18 20:12:19;;;;;;;0.73;0.73;;;;;;;;;;7384155;19;20144;-72
2022/08/18 20:14:58;;;;;;;0.50;0.50;;;;;;;;;;7385173;19;20136;-72
2022/08/18 20:17:25;;;;;;;0.32;0.32;;;;;;;;;;7384898;19;20136;-72
2022/08/18 20:19:54;;;;;;;0.30;0.30;;;;;;;;;;7387395;19;20140;-72
2022/08/18 20:22:20;;;;;;;0.75;0.73;;;;;;;;;;7376211;19;21572;-72
2022/08/18 20:25:03;;;;;;;0.47;0.47;;;;;;;;;;7374283;19;20120;-72
2022/08/18 20:27:28;;;;;;;0.30;0.30;;;;;;;;;;7380509;19;20180;-72
2022/08/18 20:30:26;;;;;;;0.35;0.35;;;;;;;;;;7384639;19;20131;-72
2022/08/18 20:33:06;;;;;;;0.57;0.57;;;;;;;;;;7370714;19;20271;-72
2022/08/18 20:35:39;;;;;;;0.38;0.38;;;;;;;;;;7363514;19;20138;-72
2022/08/18 20:38:26;;;;;;;0.30;0.30;;;;;;;;;;7368459;19;20144;-72
2022/08/18 20:40:54;;;;;;;0.30;0.30;;;;;;;;;;7382662;19;20125;-72
2022/08/18 20:43:32;;;;;;;0.30;0.30;;;;;;;;;;7378378;19;20145;-72
2022/08/18 20:46:21;;;;;;;0.30;0.30;;;;;;;;;;7363269;19;20161;-72
2022/08/18 20:49:11;;;;;;;0.30;0.30;;;;;;;;;;7383817;19;20560;-71
2022/08/18 20:51:53;;;;;;;0.70;0.70;;;;;;;;;;7378466;19;20129;-72
2022/08/18 20:54:31;;;;;;;0.30;0.30;;;;;;;;;;7364880;19;20212;-72
2022/08/18 20:56:59;;;;;;;0.45;0.45;;;;;;;;;;7385615;19;20125;-72
2022/08/18 20:59:30;;;;;;;0.30;0.30;;;;;;;;;;7377983;19;20212;-72
2022/08/18 21:02:01;;;;;;;0.30;0.30;;;;;;;;;;7382861;19;20490;-72
2022/08/18 21:04:37;;;;;;;0.40;0.40;;;;;;;;;;7373047;19;20219;-72
2022/08/18 21:07:03;;;;;;;0.30;0.30;;;;;;;;;;7379692;19;20141;-72
2022/08/18 21:09:28;;;;;;;0.68;0.68;;;;;;;;;;7373772;19;20141;-72
2022/08/18 21:11:54;;;;;;;0.30;0.30;;;;;;;;;;7378493;19;20144;-72
2022/08/18 21:14:27;;;;;;;0.70;0.60;;;;;;;;;;7376190;19;20125;-71
2022/08/18 21:16:52;;;;;;;0.30;0.30;;;;;;;;;;7388350;19;20121;-72
2022/08/18 21:19:22;;;;;;;0.40;0.40;;;;;;;;;;7384164;19;20289;-72
2022/08/18 21:21:50;;;;;;;0.50;0.50;;;;;;;;;;7386534;19;20443;-72
2022/08/18 21:24:36;;;;;;;0.32;0.32;;;;;;;;;;7381064;19;20155;-72
2022/08/18 21:27:22;;;;;;;0.35;0.35;;;;;;;;;;7382241;19;20124;-72
2022/08/18 21:29:48;;;;;;;0.30;0.30;;;;;;;;;;7382415;19;20335;-72
2022/08/18 21:32:23;;;;;;;0.30;0.30;;;;;;;;;;7378606;19;20145;-72
2022/08/18 21:34:49;;;;;;;1.10;1.00;;;;;;;;;;7380606;19;20156;-72
2022/08/18 21:37:16;;;;;;;0.30;0.30;;;;;;;;;;7381434;19;20140;-72
2022/08/18 21:39:49;;;;;;;0.35;0.35;;;;;;;;;;7369028;19;20601;-72
2022/08/18 21:42:20;;;;;;;0.30;0.30;;;;;;;;;;7363728;19;20148;-72
2022/08/18 21:44:46;;;;;;;0.30;0.30;;;;;;;;;;7368350;19;20159;-72
2022/08/18 21:47:32;;;;;;;0.20;0.20;;;;;;;;;;7369780;19;20121;-72
2022/08/18 21:50:07;;;;;;;0.30;0.30;;;;;;;;;;7368111;19;20764;-72
2022/08/18 21:52:34;;;;;;;0.45;0.45;;;;;;;;;;7370054;19;20471;-72
2022/08/18 21:55:06;;;;;;;0.30;0.30;;;;;;;;;;7375040;19;20148;-72
2022/08/18 21:58:01;;;;;;;0.40;0.40;;;;;;;;;;7366499;19;20591;-71
2022/08/18 22:01:05;;;;;;;0.30;0.30;;;;;;;;;;7376595;19;20188;-72
2022/08/18 22:03:31;;;;;;;0.30;0.30;;;;;;;;;;7373398;19;20518;-71
2022/08/18 22:06:25;;;;;;;0.30;0.30;;;;;;;;;;7371629;19;20121;-71
2022/08/18 22:08:58;;;;;;;0.30;0.30;;;;;;;;;;7383669;19;20144;-72
2022/08/18 22:14:22;;;;;;;0.40;0.40;;;;;;;;;;7386561;19;20151;-71
2022/08/18 22:16:47;;;;;;;0.32;0.32;;;;;;;;;;7388155;19;20144;-72
2022/08/18 22:19:18;;;;;;;0.30;0.30;;;;;;;;;;7388502;19;20124;-72
2022/08/18 22:24:18;;;;;;;0.20;0.20;;;;;;;;;;7379263;19;20129;-72
2022/08/18 22:24:54;;;;;;;0.30;0.30;;;;;;;;;;7384383;19;20496;-73
2022/08/18 22:27:21;;;;;;;0.30;0.30;;;;;;;;;;7380598;19;20626;-72
2022/08/18 22:29:52;;;;;;;0.30;0.30;;;;;;;;;;7376618;19;20147;-72
2022/08/18 22:32:20;;;;;;;0.30;0.30;;;;;;;;;;7385443;19;20155;-72
2022/08/18 22:34:48;;;;;;;0.38;0.35;;;;;;;;;;7375722;19;20132;-71
2022/08/18 22:37:17;;;;;;;0.30;0.30;;;;;;;;;;7378392;19;20588;-72
2022/08/18 22:39:48;;;;;;;0.30;0.30;;;;;;;;;;7383264;19;20140;-72
2022/08/18 22:42:15;;;;;;;0.30;0.30;;;;;;;;;;7384849;19;20144;-72
2022/08/18 22:44:40;;;;;;;0.40;0.40;;;;;;;;;;7382562;19;20134;-78
2022/08/18 22:47:06;;;;;;;0.30;0.30;;;;;;;;;;7383596;19;20116;-72
2022/08/18 22:49:35;;;;;;;0.30;0.30;;;;;;;;;;7375941;19;20145;-72
2022/08/18 22:52:04;;;;;;;0.38;0.38;;;;;;;;;;7381371;19;20231;-72
2022/08/18 22:54:29;;;;;;;1.08;1.05;;;;;;;;;;7377261;19;20129;-72
2022/08/18 22:56:54;;;;;;;0.38;0.38;;;;;;;;;;7371780;19;20128;-72
2022/08/18 22:59:20;;;;;;;0.57;0.57;;;;;;;;;;7372417;19;20129;-72
2022/08/18 23:01:47;;;;;;;0.40;0.40;;;;;;;;;;7364257;19;20117;-72
2022/08/18 23:04:14;;;;;;;0.30;0.30;;;;;;;;;;7375341;19;20132;-72
2022/08/18 23:06:40;;;;;;;0.30;0.30;;;;;;;;;;7375153;19;20230;-72
2022/08/18 23:09:06;;;;;;;0.22;0.22;;;;;;;;;;7384014;19;20162;-72
2022/08/18 23:11:31;;;;;;;0.30;0.30;;;;;;;;;;7384836;19;20184;-72
2022/08/18 23:13:59;;;;;;;0.80;0.80;;;;;;;;;;7378534;19;20152;-71
2022/08/18 23:16:25;;;;;;;0.30;0.30;;;;;;;;;;7385596;19;20129;-72
2022/08/18 23:18:51;;;;;;;0.30;0.30;;;;;;;;;;7377235;19;20129;-72
2022/08/18 23:21:17;;;;;;;0.75;0.75;;;;;;;;;;7373495;19;20117;-71
2022/08/18 23:23:42;;;;;;;1.00;0.68;;;;;;;;;;7374059;19;20151;-72
2022/08/18 23:26:10;;;;;;;0.30;0.30;;;;;;;;;;7373152;19;20117;-72
2022/08/18 23:28:35;;;;;;;0.30;0.30;;;;;;;;;;7364855;19;20196;-74
2022/08/18 23:31:00;;;;;;;0.30;0.30;;;;;;;;;;7368883;19;20139;-73
2022/08/18 23:33:26;;;;;;;0.65;0.65;;;;;;;;;;7366219;19;20638;-72
2022/08/18 23:35:51;;;;;;;0.30;0.30;;;;;;;;;;7359346;19;21266;-72
2022/08/18 23:38:17;;;;;;;0.30;0.30;;;;;;;;;;7371898;19;20128;-72
2022/08/18 23:40:47;;;;;;;0.30;0.30;;;;;;;;;;7377205;19;20150;-72
2022/08/18 23:43:14;;;;;;;0.60;0.60;;;;;;;;;;7381954;19;20507;-72
2022/08/18 23:45:40;;;;;;;0.30;0.30;;;;;;;;;;7378127;19;20152;-72
2022/08/18 23:48:07;;;;;;;0.40;0.40;;;;;;;;;;7369977;19;20149;-72
2022/08/18 23:50:33;;;;;;;0.65;0.63;;;;;;;;;;7369849;19;20511;-72
2022/08/18 23:53:01;;;;;;;0.30;0.30;;;;;;;;;;7376509;19;20177;-72
2022/08/18 23:55:27;;;;;;;0.70;0.70;;;;;;;;;;7361797;19;20139;-73
2022/08/18 23:57:53;;;;;;;0.30;0.30;;;;;;;;;;7372055;19;20129;-73
